sensor_id;sensor_type;location;lat;lon;timestamp;P1;durP1;ratioP1;P2;durP2;ratioP2
39022;SDS011;25908;51.984;5.928;2022-08-02T00:01:20;6.32;;;1.50;;
39022;SDS011;25908;51.984;5.928;2022-08-02T00:03:45;3.88;;;1.40;;
39022;SDS011;25908;51.984;5.928;2022-08-02T00:06:11;5.30;;;1.33;;
39022;SDS011;25908;51.984;5.928;2022-08-02T00:08:37;5.88;;;1.50;;
39022;SDS011;25908;51.984;5.928;2022-08-02T00:11:02;5.30;;;1.60;;
39022;SDS011;25908;51.984;5.928;2022-08-02T00:13:28;2.38;;;1.05;;
39022;SDS011;25908;51.984;5.928;2022-08-02T00:15:53;4.93;;;1.40;;
39022;SDS011;25908;51.984;5.928;2022-08-02T00:18:19;3.58;;;1.25;;
39022;SDS011;25908;51.984;5.928;2022-08-02T00:20:44;5.05;;;1.65;;
39022;SDS011;25908;51.984;5.928;2022-08-02T00:23:10;3.15;;;1.30;;
39022;SDS011;25908;51.984;5.928;2022-08-02T00:25:35;8.38;;;2.38;;
39022;SDS011;25908;51.984;5.928;2022-08-02T00:28:01;3.08;;;1.20;;
39022;SDS011;25908;51.984;5.928;2022-08-02T00:30:26;4.78;;;1.65;;
39022;SDS011;25908;51.984;5.928;2022-08-02T00:32:52;5.60;;;1.60;;
39022;SDS011;25908;51.984;5.928;2022-08-02T00:35:17;6.18;;;1.23;;
39022;SDS011;25908;51.984;5.928;2022-08-02T00:37:43;8.02;;;1.75;;
39022;SDS011;25908;51.984;5.928;2022-08-02T00:40:09;7.70;;;1.90;;
39022;SDS011;25908;51.984;5.928;2022-08-02T00:42:35;5.80;;;1.88;;
39022;SDS011;25908;51.984;5.928;2022-08-02T00:45:00;6.70;;;1.70;;
39022;SDS011;25908;51.984;5.928;2022-08-02T00:47:26;5.50;;;1.73;;
39022;SDS011;25908;51.984;5.928;2022-08-02T00:49:51;5.85;;;1.40;;
39022;SDS011;25908;51.984;5.928;2022-08-02T00:52:17;4.30;;;1.30;;
39022;SDS011;25908;51.984;5.928;2022-08-02T00:54:42;5.55;;;1.90;;
39022;SDS011;25908;51.984;5.928;2022-08-02T00:57:08;6.18;;;1.55;;
39022;SDS011;25908;51.984;5.928;2022-08-02T00:59:33;5.45;;;1.58;;
39022;SDS011;25908;51.984;5.928;2022-08-02T01:01:59;4.55;;;1.33;;
39022;SDS011;25908;51.984;5.928;2022-08-02T01:04:25;4.75;;;1.60;;
39022;SDS011;25908;51.984;5.928;2022-08-02T01:06:51;5.45;;;1.45;;
39022;SDS011;25908;51.984;5.928;2022-08-02T01:09:16;4.65;;;1.52;;
39022;SDS011;25908;51.984;5.928;2022-08-02T01:11:42;5.80;;;1.40;;
39022;SDS011;25908;51.984;5.928;2022-08-02T01:14:08;5.75;;;1.48;;
39022;SDS011;25908;51.984;5.928;2022-08-02T01:16:47;3.60;;;1.77;;
39022;SDS011;25908;51.984;5.928;2022-08-02T01:19:29;4.40;;;1.60;;
39022;SDS011;25908;51.984;5.928;2022-08-02T01:30:15;4.47;;;1.80;;
39022;SDS011;25908;51.984;5.928;2022-08-02T01:32:42;4.72;;;1.40;;
39022;SDS011;25908;51.984;5.928;2022-08-02T01:35:14;5.72;;;1.52;;
39022;SDS011;25908;51.984;5.928;2022-08-02T01:40:41;3.60;;;1.33;;
39022;SDS011;25908;51.984;5.928;2022-08-02T01:43:09;4.00;;;1.60;;
39022;SDS011;25908;51.984;5.928;2022-08-02T01:45:36;5.00;;;1.27;;
39022;SDS011;25908;51.984;5.928;2022-08-02T01:48:05;9.00;;;1.60;;
39022;SDS011;25908;51.984;5.928;2022-08-02T01:50:33;5.60;;;1.40;;
39022;SDS011;25908;51.984;5.928;2022-08-02T01:53:02;4.72;;;1.50;;
39022;SDS011;25908;51.984;5.928;2022-08-02T01:55:33;4.72;;;1.42;;
39022;SDS011;25908;51.984;5.928;2022-08-02T01:58:03;5.38;;;1.70;;
39022;SDS011;25908;51.984;5.928;2022-08-02T02:00:32;4.30;;;1.23;;
39022;SDS011;25908;51.984;5.928;2022-08-02T02:03:00;3.30;;;1.40;;
39022;SDS011;25908;51.984;5.928;2022-08-02T02:05:29;4.55;;;1.40;;
39022;SDS011;25908;51.984;5.928;2022-08-02T02:07:56;5.93;;;1.70;;
39022;SDS011;25908;51.984;5.928;2022-08-02T02:10:25;4.32;;;1.60;;
39022;SDS011;25908;51.984;5.928;2022-08-02T02:12:54;5.70;;;1.67;;
39022;SDS011;25908;51.984;5.928;2022-08-02T02:15:22;7.63;;;1.80;;
39022;SDS011;25908;51.984;5.928;2022-08-02T02:17:50;4.32;;;1.60;;
39022;SDS011;25908;51.984;5.928;2022-08-02T02:20:20;6.40;;;2.00;;
39022;SDS011;25908;51.984;5.928;2022-08-02T02:22:46;6.88;;;2.20;;
39022;SDS011;25908;51.984;5.928;2022-08-02T02:25:13;5.43;;;1.60;;
39022;SDS011;25908;51.984;5.928;2022-08-02T02:27:51;8.05;;;1.77;;
39022;SDS011;25908;51.984;5.928;2022-08-02T02:30:22;5.18;;;1.80;;
39022;SDS011;25908;51.984;5.928;2022-08-02T02:32:51;4.85;;;1.67;;
39022;SDS011;25908;51.984;5.928;2022-08-02T02:35:19;4.75;;;1.65;;
39022;SDS011;25908;51.984;5.928;2022-08-02T02:37:47;6.68;;;1.70;;
39022;SDS011;25908;51.984;5.928;2022-08-02T02:40:13;6.65;;;2.08;;
39022;SDS011;25908;51.984;5.928;2022-08-02T02:42:41;4.43;;;1.80;;
39022;SDS011;25908;51.984;5.928;2022-08-02T02:45:09;6.47;;;1.90;;
39022;SDS011;25908;51.984;5.928;2022-08-02T02:47:36;5.85;;;2.20;;
39022;SDS011;25908;51.984;5.928;2022-08-02T02:50:03;6.13;;;2.03;;
39022;SDS011;25908;51.984;5.928;2022-08-02T02:52:30;7.47;;;2.17;;
39022;SDS011;25908;51.984;5.928;2022-08-02T02:54:56;5.75;;;1.90;;
39022;SDS011;25908;51.984;5.928;2022-08-02T02:57:23;9.90;;;2.25;;
39022;SDS011;25908;51.984;5.928;2022-08-02T02:59:48;8.50;;;2.33;;
39022;SDS011;25908;51.984;5.928;2022-08-02T03:02:14;6.35;;;2.20;;
39022;SDS011;25908;51.984;5.928;2022-08-02T03:04:41;5.88;;;2.20;;
39022;SDS011;25908;51.984;5.928;2022-08-02T03:07:08;7.03;;;1.90;;
39022;SDS011;25908;51.984;5.928;2022-08-02T03:09:34;7.18;;;2.08;;
39022;SDS011;25908;51.984;5.928;2022-08-02T03:12:00;6.07;;;2.13;;
39022;SDS011;25908;51.984;5.928;2022-08-02T03:14:26;4.47;;;1.80;;
39022;SDS011;25908;51.984;5.928;2022-08-02T03:16:52;6.10;;;1.85;;
39022;SDS011;25908;51.984;5.928;2022-08-02T03:19:19;7.45;;;2.50;;
39022;SDS011;25908;51.984;5.928;2022-08-02T03:21:46;6.47;;;2.00;;
39022;SDS011;25908;51.984;5.928;2022-08-02T03:24:13;4.78;;;2.00;;
39022;SDS011;25908;51.984;5.928;2022-08-02T03:26:40;4.70;;;2.05;;
39022;SDS011;25908;51.984;5.928;2022-08-02T03:29:05;10.38;;;2.38;;
39022;SDS011;25908;51.984;5.928;2022-08-02T03:31:31;6.95;;;2.33;;
39022;SDS011;25908;51.984;5.928;2022-08-02T03:33:57;3.92;;;1.95;;
39022;SDS011;25908;51.984;5.928;2022-08-02T03:36:24;7.95;;;2.20;;
39022;SDS011;25908;51.984;5.928;2022-08-02T03:38:52;6.50;;;1.90;;
39022;SDS011;25908;51.984;5.928;2022-08-02T03:41:19;5.15;;;1.80;;
39022;SDS011;25908;51.984;5.928;2022-08-02T03:43:46;4.25;;;1.80;;
39022;SDS011;25908;51.984;5.928;2022-08-02T03:46:13;5.55;;;1.70;;
39022;SDS011;25908;51.984;5.928;2022-08-02T03:48:41;3.67;;;1.95;;
39022;SDS011;25908;51.984;5.928;2022-08-02T03:51:07;3.85;;;1.88;;
39022;SDS011;25908;51.984;5.928;2022-08-02T03:53:33;7.55;;;2.13;;
39022;SDS011;25908;51.984;5.928;2022-08-02T03:56:00;6.82;;;2.28;;
39022;SDS011;25908;51.984;5.928;2022-08-02T03:58:25;4.75;;;2.15;;
39022;SDS011;25908;51.984;5.928;2022-08-02T04:00:52;5.07;;;2.50;;
39022;SDS011;25908;51.984;5.928;2022-08-02T04:03:18;11.23;;;2.83;;
39022;SDS011;25908;51.984;5.928;2022-08-02T04:05:44;6.22;;;2.58;;
39022;SDS011;25908;51.984;5.928;2022-08-02T04:08:09;7.03;;;2.80;;
39022;SDS011;25908;51.984;5.928;2022-08-02T04:10:35;8.77;;;2.72;;
39022;SDS011;25908;51.984;5.928;2022-08-02T04:13:20;6.63;;;2.10;;
39022;SDS011;25908;51.984;5.928;2022-08-02T04:15:48;6.85;;;2.05;;
39022;SDS011;25908;51.984;5.928;2022-08-02T04:18:16;4.78;;;2.35;;
39022;SDS011;25908;51.984;5.928;2022-08-02T04:20:43;5.38;;;2.15;;
39022;SDS011;25908;51.984;5.928;2022-08-02T04:23:12;5.47;;;2.28;;
39022;SDS011;25908;51.984;5.928;2022-08-02T04:25:39;4.60;;;2.30;;
39022;SDS011;25908;51.984;5.928;2022-08-02T04:28:06;6.90;;;2.83;;
39022;SDS011;25908;51.984;5.928;2022-08-02T04:30:33;7.00;;;2.40;;
39022;SDS011;25908;51.984;5.928;2022-08-02T04:33:00;8.57;;;2.80;;
39022;SDS011;25908;51.984;5.928;2022-08-02T04:35:26;6.25;;;2.50;;
39022;SDS011;25908;51.984;5.928;2022-08-02T04:37:52;6.38;;;2.75;;
39022;SDS011;25908;51.984;5.928;2022-08-02T04:40:18;7.68;;;3.22;;
39022;SDS011;25908;51.984;5.928;2022-08-02T04:42:43;8.68;;;3.03;;
39022;SDS011;25908;51.984;5.928;2022-08-02T04:45:09;9.18;;;3.20;;
39022;SDS011;25908;51.984;5.928;2022-08-02T04:47:35;6.13;;;2.90;;
39022;SDS011;25908;51.984;5.928;2022-08-02T04:50:01;5.85;;;2.92;;
39022;SDS011;25908;51.984;5.928;2022-08-02T04:52:28;6.55;;;2.80;;
39022;SDS011;25908;51.984;5.928;2022-08-02T04:54:54;8.02;;;2.95;;
39022;SDS011;25908;51.984;5.928;2022-08-02T04:57:20;4.95;;;3.10;;
39022;SDS011;25908;51.984;5.928;2022-08-02T05:00:04;6.63;;;3.42;;
39022;SDS011;25908;51.984;5.928;2022-08-02T05:02:32;9.52;;;3.40;;
39022;SDS011;25908;51.984;5.928;2022-08-02T05:04:58;7.50;;;3.60;;
39022;SDS011;25908;51.984;5.928;2022-08-02T05:07:23;7.15;;;3.42;;
39022;SDS011;25908;51.984;5.928;2022-08-02T05:09:49;7.10;;;3.38;;
39022;SDS011;25908;51.984;5.928;2022-08-02T05:12:14;9.30;;;3.58;;
39022;SDS011;25908;51.984;5.928;2022-08-02T05:14:40;10.38;;;3.40;;
39022;SDS011;25908;51.984;5.928;2022-08-02T05:17:05;6.82;;;3.10;;
39022;SDS011;25908;51.984;5.928;2022-08-02T05:19:31;10.60;;;3.38;;
39022;SDS011;25908;51.984;5.928;2022-08-02T05:21:56;11.45;;;4.03;;
39022;SDS011;25908;51.984;5.928;2022-08-02T05:24:22;10.82;;;4.10;;
39022;SDS011;25908;51.984;5.928;2022-08-02T05:26:47;7.90;;;3.53;;
39022;SDS011;25908;51.984;5.928;2022-08-02T05:29:14;10.90;;;4.63;;
39022;SDS011;25908;51.984;5.928;2022-08-02T05:31:40;6.95;;;3.38;;
39022;SDS011;25908;51.984;5.928;2022-08-02T05:34:05;6.70;;;3.22;;
39022;SDS011;25908;51.984;5.928;2022-08-02T05:36:31;6.68;;;3.45;;
39022;SDS011;25908;51.984;5.928;2022-08-02T05:38:56;9.02;;;3.83;;
39022;SDS011;25908;51.984;5.928;2022-08-02T05:41:22;8.93;;;3.65;;
39022;SDS011;25908;51.984;5.928;2022-08-02T05:43:47;8.30;;;3.78;;
39022;SDS011;25908;51.984;5.928;2022-08-02T05:46:13;11.25;;;4.25;;
39022;SDS011;25908;51.984;5.928;2022-08-02T05:48:38;11.50;;;4.82;;
39022;SDS011;25908;51.984;5.928;2022-08-02T05:51:05;7.57;;;3.92;;
39022;SDS011;25908;51.984;5.928;2022-08-02T05:53:36;11.30;;;4.18;;
39022;SDS011;25908;51.984;5.928;2022-08-02T05:56:11;10.13;;;3.97;;
39022;SDS011;25908;51.984;5.928;2022-08-02T06:01:43;10.20;;;4.50;;
39022;SDS011;25908;51.984;5.928;2022-08-02T06:04:17;9.27;;;4.50;;
39022;SDS011;25908;51.984;5.928;2022-08-02T06:06:48;9.48;;;4.97;;
39022;SDS011;25908;51.984;5.928;2022-08-02T06:09:18;8.90;;;4.65;;
39022;SDS011;25908;51.984;5.928;2022-08-02T06:11:46;9.43;;;4.18;;
39022;SDS011;25908;51.984;5.928;2022-08-02T06:14:16;10.50;;;4.97;;
39022;SDS011;25908;51.984;5.928;2022-08-02T06:16:43;7.70;;;3.58;;
39022;SDS011;25908;51.984;5.928;2022-08-02T06:19:12;11.27;;;4.65;;
39022;SDS011;25908;51.984;5.928;2022-08-02T06:21:41;10.05;;;4.63;;
39022;SDS011;25908;51.984;5.928;2022-08-02T06:24:08;12.57;;;4.82;;
39022;SDS011;25908;51.984;5.928;2022-08-02T06:26:34;14.07;;;4.57;;
39022;SDS011;25908;51.984;5.928;2022-08-02T06:29:02;12.57;;;4.25;;
39022;SDS011;25908;51.984;5.928;2022-08-02T06:31:27;13.88;;;4.75;;
39022;SDS011;25908;51.984;5.928;2022-08-02T06:33:53;11.25;;;4.75;;
39022;SDS011;25908;51.984;5.928;2022-08-02T06:39:14;10.15;;;4.80;;
39022;SDS011;25908;51.984;5.928;2022-08-02T06:41:53;9.35;;;4.63;;
39022;SDS011;25908;51.984;5.928;2022-08-02T06:44:26;9.93;;;4.53;;
39022;SDS011;25908;51.984;5.928;2022-08-02T06:46:52;8.40;;;4.28;;
39022;SDS011;25908;51.984;5.928;2022-08-02T06:49:18;6.63;;;3.75;;
39022;SDS011;25908;51.984;5.928;2022-08-02T06:51:44;9.77;;;3.83;;
39022;SDS011;25908;51.984;5.928;2022-08-02T06:54:09;11.65;;;4.00;;
39022;SDS011;25908;51.984;5.928;2022-08-02T06:56:35;8.85;;;4.03;;
39022;SDS011;25908;51.984;5.928;2022-08-02T06:59:00;12.50;;;4.05;;
39022;SDS011;25908;51.984;5.928;2022-08-02T07:01:26;9.48;;;3.67;;
39022;SDS011;25908;51.984;5.928;2022-08-02T07:03:51;8.65;;;4.10;;
39022;SDS011;25908;51.984;5.928;2022-08-02T07:06:17;8.73;;;3.72;;
39022;SDS011;25908;51.984;5.928;2022-08-02T07:08:43;9.15;;;4.13;;
39022;SDS011;25908;51.984;5.928;2022-08-02T07:11:08;11.48;;;4.07;;
39022;SDS011;25908;51.984;5.928;2022-08-02T07:13:35;11.00;;;3.65;;
39022;SDS011;25908;51.984;5.928;2022-08-02T07:16:02;8.68;;;3.63;;
39022;SDS011;25908;51.984;5.928;2022-08-02T07:18:28;7.95;;;3.92;;
39022;SDS011;25908;51.984;5.928;2022-08-02T07:20:54;8.13;;;3.78;;
39022;SDS011;25908;51.984;5.928;2022-08-02T07:23:19;8.75;;;3.60;;
39022;SDS011;25908;51.984;5.928;2022-08-02T07:25:45;10.25;;;3.33;;
39022;SDS011;25908;51.984;5.928;2022-08-02T07:28:11;8.50;;;3.50;;
39022;SDS011;25908;51.984;5.928;2022-08-02T07:30:39;10.63;;;3.53;;
39022;SDS011;25908;51.984;5.928;2022-08-02T07:33:05;7.97;;;3.42;;
39022;SDS011;25908;51.984;5.928;2022-08-02T07:35:31;8.57;;;3.05;;
39022;SDS011;25908;51.984;5.928;2022-08-02T07:37:56;8.18;;;3.45;;
39022;SDS011;25908;51.984;5.928;2022-08-02T07:40:22;9.10;;;3.15;;
39022;SDS011;25908;51.984;5.928;2022-08-02T07:42:51;7.60;;;3.20;;
39022;SDS011;25908;51.984;5.928;2022-08-02T07:45:19;5.95;;;3.28;;
39022;SDS011;25908;51.984;5.928;2022-08-02T07:47:45;6.55;;;2.90;;
39022;SDS011;25908;51.984;5.928;2022-08-02T07:50:11;9.93;;;2.92;;
39022;SDS011;25908;51.984;5.928;2022-08-02T07:52:39;6.97;;;2.90;;
39022;SDS011;25908;51.984;5.928;2022-08-02T07:55:05;10.30;;;2.80;;
39022;SDS011;25908;51.984;5.928;2022-08-02T07:57:31;5.63;;;2.88;;
39022;SDS011;25908;51.984;5.928;2022-08-02T07:59:57;6.75;;;3.20;;
39022;SDS011;25908;51.984;5.928;2022-08-02T08:02:23;8.75;;;3.15;;
39022;SDS011;25908;51.984;5.928;2022-08-02T08:04:49;6.97;;;3.05;;
39022;SDS011;25908;51.984;5.928;2022-08-02T08:07:15;5.07;;;3.40;;
39022;SDS011;25908;51.984;5.928;2022-08-02T08:09:41;7.72;;;3.05;;
39022;SDS011;25908;51.984;5.928;2022-08-02T08:12:08;7.20;;;2.70;;
39022;SDS011;25908;51.984;5.928;2022-08-02T08:14:34;5.85;;;3.63;;
39022;SDS011;25908;51.984;5.928;2022-08-02T08:17:00;8.55;;;3.53;;
39022;SDS011;25908;51.984;5.928;2022-08-02T08:19:25;7.10;;;3.83;;
39022;SDS011;25908;51.984;5.928;2022-08-02T08:21:51;6.63;;;3.63;;
39022;SDS011;25908;51.984;5.928;2022-08-02T08:24:16;7.45;;;4.30;;
39022;SDS011;25908;51.984;5.928;2022-08-02T08:26:42;11.40;;;4.07;;
39022;SDS011;25908;51.984;5.928;2022-08-02T08:29:07;5.55;;;3.90;;
39022;SDS011;25908;51.984;5.928;2022-08-02T08:31:33;7.35;;;3.63;;
39022;SDS011;25908;51.984;5.928;2022-08-02T08:33:59;7.80;;;3.97;;
39022;SDS011;25908;51.984;5.928;2022-08-02T08:36:25;5.72;;;4.20;;
39022;SDS011;25908;51.984;5.928;2022-08-02T08:38:51;9.35;;;4.43;;
39022;SDS011;25908;51.984;5.928;2022-08-02T08:41:17;7.97;;;4.07;;
39022;SDS011;25908;51.984;5.928;2022-08-02T08:43:43;6.88;;;3.88;;
39022;SDS011;25908;51.984;5.928;2022-08-02T08:46:10;8.38;;;4.38;;
39022;SDS011;25908;51.984;5.928;2022-08-02T08:48:42;5.00;;;3.60;;
39022;SDS011;25908;51.984;5.928;2022-08-02T08:51:14;5.68;;;3.88;;
39022;SDS011;25908;51.984;5.928;2022-08-02T08:53:42;10.88;;;5.13;;
39022;SDS011;25908;51.984;5.928;2022-08-02T08:56:12;8.90;;;4.20;;
39022;SDS011;25908;51.984;5.928;2022-08-02T08:58:39;8.13;;;4.05;;
39022;SDS011;25908;51.984;5.928;2022-08-02T09:01:05;7.22;;;4.40;;
39022;SDS011;25908;51.984;5.928;2022-08-02T09:03:31;9.48;;;3.70;;
39022;SDS011;25908;51.984;5.928;2022-08-02T09:05:56;5.38;;;3.92;;
39022;SDS011;25908;51.984;5.928;2022-08-02T09:08:23;5.82;;;3.90;;
39022;SDS011;25908;51.984;5.928;2022-08-02T09:10:49;8.15;;;3.80;;
39022;SDS011;25908;51.984;5.928;2022-08-02T09:15:54;6.93;;;3.38;;
39022;SDS011;25908;51.984;5.928;2022-08-02T09:18:30;5.05;;;3.00;;
39022;SDS011;25908;51.984;5.928;2022-08-02T09:20:58;4.93;;;2.75;;
39022;SDS011;25908;51.984;5.928;2022-08-02T09:23:25;6.32;;;2.60;;
39022;SDS011;25908;51.984;5.928;2022-08-02T09:25:58;6.68;;;2.95;;
39022;SDS011;25908;51.984;5.928;2022-08-02T09:28:25;5.10;;;2.30;;
39022;SDS011;25908;51.984;5.928;2022-08-02T09:30:54;4.35;;;2.30;;
39022;SDS011;25908;51.984;5.928;2022-08-02T09:33:25;4.75;;;2.13;;
39022;SDS011;25908;51.984;5.928;2022-08-02T09:38:31;3.50;;;1.73;;
39022;SDS011;25908;51.984;5.928;2022-08-02T09:40:57;3.83;;;1.67;;
39022;SDS011;25908;51.984;5.928;2022-08-02T09:43:37;3.25;;;1.40;;
39022;SDS011;25908;51.984;5.928;2022-08-02T09:48:33;5.75;;;1.30;;
39022;SDS011;25908;51.984;5.928;2022-08-02T09:50:59;2.10;;;0.98;;
39022;SDS011;25908;51.984;5.928;2022-08-02T09:53:24;3.30;;;1.17;;
39022;SDS011;25908;51.984;5.928;2022-08-02T09:55:56;1.92;;;1.33;;
39022;SDS011;25908;51.984;5.928;2022-08-02T09:58:21;3.75;;;1.05;;
39022;SDS011;25908;51.984;5.928;2022-08-02T10:00:54;2.05;;;1.20;;
39022;SDS011;25908;51.984;5.928;2022-08-02T10:03:20;3.40;;;1.20;;
39022;SDS011;25908;51.984;5.928;2022-08-02T10:05:46;2.50;;;1.58;;
39022;SDS011;25908;51.984;5.928;2022-08-02T10:08:13;4.13;;;1.27;;
39022;SDS011;25908;51.984;5.928;2022-08-02T10:10:40;3.65;;;1.60;;
39022;SDS011;25908;51.984;5.928;2022-08-02T10:13:07;2.40;;;1.30;;
39022;SDS011;25908;51.984;5.928;2022-08-02T10:15:33;2.88;;;1.48;;
39022;SDS011;25908;51.984;5.928;2022-08-02T10:18:00;3.60;;;1.20;;
39022;SDS011;25908;51.984;5.928;2022-08-02T10:20:25;4.75;;;1.40;;
39022;SDS011;25908;51.984;5.928;2022-08-02T10:22:53;3.17;;;1.13;;
39022;SDS011;25908;51.984;5.928;2022-08-02T10:25:19;2.65;;;1.27;;
39022;SDS011;25908;51.984;5.928;2022-08-02T10:27:46;1.90;;;1.10;;
39022;SDS011;25908;51.984;5.928;2022-08-02T10:30:14;5.03;;;1.60;;
39022;SDS011;25908;51.984;5.928;2022-08-02T10:32:41;3.00;;;1.23;;
39022;SDS011;25908;51.984;5.928;2022-08-02T10:35:11;1.35;;;1.00;;
39022;SDS011;25908;51.984;5.928;2022-08-02T10:37:39;2.17;;;1.05;;
39022;SDS011;25908;51.984;5.928;2022-08-02T10:40:08;3.55;;;1.17;;
39022;SDS011;25908;51.984;5.928;2022-08-02T10:42:54;5.15;;;2.40;;
39022;SDS011;25908;51.984;5.928;2022-08-02T10:45:23;2.83;;;1.40;;
39022;SDS011;25908;51.984;5.928;2022-08-02T10:47:55;3.25;;;1.00;;
39022;SDS011;25908;51.984;5.928;2022-08-02T10:50:39;3.63;;;1.10;;
39022;SDS011;25908;51.984;5.928;2022-08-02T10:55:51;2.10;;;1.02;;
39022;SDS011;25908;51.984;5.928;2022-08-02T10:58:19;4.25;;;1.20;;
39022;SDS011;25908;51.984;5.928;2022-08-02T11:00:46;1.67;;;0.88;;
39022;SDS011;25908;51.984;5.928;2022-08-02T11:03:46;1.85;;;0.93;;
39022;SDS011;25908;51.984;5.928;2022-08-02T11:06:11;2.65;;;1.20;;
39022;SDS011;25908;51.984;5.928;2022-08-02T11:08:38;2.55;;;1.00;;
39022;SDS011;25908;51.984;5.928;2022-08-02T11:13:35;2.10;;;1.10;;
39022;SDS011;25908;51.984;5.928;2022-08-02T11:19:19;3.40;;;0.90;;
39022;SDS011;25908;51.984;5.928;2022-08-02T11:21:58;1.83;;;1.10;;
39022;SDS011;25908;51.984;5.928;2022-08-02T11:24:28;6.22;;;0.80;;
39022;SDS011;25908;51.984;5.928;2022-08-02T11:26:59;1.95;;;1.17;;
39022;SDS011;25908;51.984;5.928;2022-08-02T11:32:02;1.65;;;0.80;;
39022;SDS011;25908;51.984;5.928;2022-08-02T11:34:28;2.70;;;0.95;;
39022;SDS011;25908;51.984;5.928;2022-08-02T11:36:57;1.35;;;0.90;;
39022;SDS011;25908;51.984;5.928;2022-08-02T11:39:22;6.03;;;1.10;;
39022;SDS011;25908;51.984;5.928;2022-08-02T11:41:51;3.00;;;0.88;;
39022;SDS011;25908;51.984;5.928;2022-08-02T11:44:19;2.05;;;1.10;;
39022;SDS011;25908;51.984;5.928;2022-08-02T11:46:52;2.10;;;0.75;;
39022;SDS011;25908;51.984;5.928;2022-08-02T11:49:25;4.90;;;1.30;;
39022;SDS011;25908;51.984;5.928;2022-08-02T11:54:32;2.22;;;1.10;;
39022;SDS011;25908;51.984;5.928;2022-08-02T11:57:08;2.05;;;0.95;;
39022;SDS011;25908;51.984;5.928;2022-08-02T11:59:39;2.17;;;1.15;;
39022;SDS011;25908;51.984;5.928;2022-08-02T12:02:05;2.20;;;1.00;;
39022;SDS011;25908;51.984;5.928;2022-08-02T12:04:32;1.63;;;0.90;;
39022;SDS011;25908;51.984;5.928;2022-08-02T12:06:58;1.20;;;0.80;;
39022;SDS011;25908;51.984;5.928;2022-08-02T12:09:25;2.25;;;0.90;;
39022;SDS011;25908;51.984;5.928;2022-08-02T12:11:52;4.60;;;0.93;;
39022;SDS011;25908;51.984;5.928;2022-08-02T12:14:18;2.00;;;0.80;;
39022;SDS011;25908;51.984;5.928;2022-08-02T12:16:44;1.50;;;0.93;;
39022;SDS011;25908;51.984;5.928;2022-08-02T12:19:30;2.50;;;1.02;;
39022;SDS011;25908;51.984;5.928;2022-08-02T12:24:52;4.97;;;1.65;;
39022;SDS011;25908;51.984;5.928;2022-08-02T12:27:29;3.17;;;1.00;;
39022;SDS011;25908;51.984;5.928;2022-08-02T12:32:27;2.50;;;0.88;;
39022;SDS011;25908;51.984;5.928;2022-08-02T12:34:59;1.90;;;0.80;;
39022;SDS011;25908;51.984;5.928;2022-08-02T12:37:40;4.10;;;1.10;;
39022;SDS011;25908;51.984;5.928;2022-08-02T12:40:22;2.42;;;1.20;;
39022;SDS011;25908;51.984;5.928;2022-08-02T12:42:57;3.05;;;1.30;;
39022;SDS011;25908;51.984;5.928;2022-08-02T12:45:25;3.90;;;1.00;;
39022;SDS011;25908;51.984;5.928;2022-08-02T12:47:53;2.55;;;1.45;;
39022;SDS011;25908;51.984;5.928;2022-08-02T12:50:22;1.88;;;0.93;;
39022;SDS011;25908;51.984;5.928;2022-08-02T12:58:18;1.90;;;0.93;;
39022;SDS011;25908;51.984;5.928;2022-08-02T13:00:50;1.92;;;1.15;;
39022;SDS011;25908;51.984;5.928;2022-08-02T13:03:17;2.05;;;0.85;;
39022;SDS011;25908;51.984;5.928;2022-08-02T13:05:44;3.90;;;1.30;;
39022;SDS011;25908;51.984;5.928;2022-08-02T13:08:10;2.00;;;1.17;;
39022;SDS011;25908;51.984;5.928;2022-08-02T13:10:35;1.92;;;0.90;;
39022;SDS011;25908;51.984;5.928;2022-08-02T13:13:01;2.92;;;0.75;;
39022;SDS011;25908;51.984;5.928;2022-08-02T13:15:26;3.08;;;0.93;;
39022;SDS011;25908;51.984;5.928;2022-08-02T13:17:52;2.75;;;1.33;;
39022;SDS011;25908;51.984;5.928;2022-08-02T13:20:18;4.07;;;1.23;;
39022;SDS011;25908;51.984;5.928;2022-08-02T13:22:44;7.10;;;0.93;;
39022;SDS011;25908;51.984;5.928;2022-08-02T13:25:09;1.65;;;0.85;;
39022;SDS011;25908;51.984;5.928;2022-08-02T13:27:35;2.80;;;1.00;;
39022;SDS011;25908;51.984;5.928;2022-08-02T13:30:02;4.22;;;1.02;;
39022;SDS011;25908;51.984;5.928;2022-08-02T13:32:28;1.50;;;0.70;;
39022;SDS011;25908;51.984;5.928;2022-08-02T13:34:55;4.63;;;0.80;;
39022;SDS011;25908;51.984;5.928;2022-08-02T13:37:22;3.53;;;0.90;;
39022;SDS011;25908;51.984;5.928;2022-08-02T13:39:48;2.05;;;1.20;;
39022;SDS011;25908;51.984;5.928;2022-08-02T13:42:13;1.88;;;0.80;;
39022;SDS011;25908;51.984;5.928;2022-08-02T13:44:39;2.40;;;1.00;;
39022;SDS011;25908;51.984;5.928;2022-08-02T13:47:05;4.18;;;0.80;;
39022;SDS011;25908;51.984;5.928;2022-08-02T13:49:32;2.30;;;0.90;;
39022;SDS011;25908;51.984;5.928;2022-08-02T13:51:57;3.10;;;0.65;;
39022;SDS011;25908;51.984;5.928;2022-08-02T13:54:23;4.65;;;0.93;;
39022;SDS011;25908;51.984;5.928;2022-08-02T13:56:49;1.35;;;0.80;;
39022;SDS011;25908;51.984;5.928;2022-08-02T13:59:14;2.00;;;1.00;;
39022;SDS011;25908;51.984;5.928;2022-08-02T14:01:40;2.13;;;0.90;;
39022;SDS011;25908;51.984;5.928;2022-08-02T14:04:05;1.80;;;0.80;;
39022;SDS011;25908;51.984;5.928;2022-08-02T14:06:31;2.92;;;0.98;;
39022;SDS011;25908;51.984;5.928;2022-08-02T14:08:57;1.40;;;0.90;;
39022;SDS011;25908;51.984;5.928;2022-08-02T14:11:23;1.95;;;0.73;;
39022;SDS011;25908;51.984;5.928;2022-08-02T14:13:48;3.28;;;1.30;;
39022;SDS011;25908;51.984;5.928;2022-08-02T14:16:14;4.40;;;1.00;;
39022;SDS011;25908;51.984;5.928;2022-08-02T14:18:39;1.65;;;0.90;;
39022;SDS011;25908;51.984;5.928;2022-08-02T14:21:07;3.15;;;0.90;;
39022;SDS011;25908;51.984;5.928;2022-08-02T14:23:33;3.13;;;1.10;;
39022;SDS011;25908;51.984;5.928;2022-08-02T14:25:59;2.17;;;0.90;;
39022;SDS011;25908;51.984;5.928;2022-08-02T14:28:24;2.25;;;0.85;;
39022;SDS011;25908;51.984;5.928;2022-08-02T14:30:50;1.98;;;0.80;;
39022;SDS011;25908;51.984;5.928;2022-08-02T14:33:15;2.63;;;1.13;;
39022;SDS011;25908;51.984;5.928;2022-08-02T14:35:42;1.35;;;0.80;;
39022;SDS011;25908;51.984;5.928;2022-08-02T14:38:08;1.65;;;1.00;;
39022;SDS011;25908;51.984;5.928;2022-08-02T14:40:33;3.25;;;0.80;;
39022;SDS011;25908;51.984;5.928;2022-08-02T14:42:59;3.58;;;1.00;;
39022;SDS011;25908;51.984;5.928;2022-08-02T14:45:25;1.73;;;0.88;;
39022;SDS011;25908;51.984;5.928;2022-08-02T14:47:53;2.60;;;0.90;;
39022;SDS011;25908;51.984;5.928;2022-08-02T14:50:19;1.65;;;1.02;;
39022;SDS011;25908;51.984;5.928;2022-08-02T14:52:45;1.98;;;0.70;;
39022;SDS011;25908;51.984;5.928;2022-08-02T14:55:12;1.35;;;1.10;;
39022;SDS011;25908;51.984;5.928;2022-08-02T14:57:38;4.25;;;0.93;;
39022;SDS011;25908;51.984;5.928;2022-08-02T15:00:04;1.90;;;1.00;;
39022;SDS011;25908;51.984;5.928;2022-08-02T15:02:30;5.20;;;1.00;;
39022;SDS011;25908;51.984;5.928;2022-08-02T15:04:56;1.75;;;0.85;;
39022;SDS011;25908;51.984;5.928;2022-08-02T15:07:22;3.38;;;1.00;;
39022;SDS011;25908;51.984;5.928;2022-08-02T15:09:47;1.70;;;0.90;;
39022;SDS011;25908;51.984;5.928;2022-08-02T15:12:13;3.78;;;1.20;;
39022;SDS011;25908;51.984;5.928;2022-08-02T15:14:39;2.67;;;1.00;;
39022;SDS011;25908;51.984;5.928;2022-08-02T15:17:05;2.83;;;1.02;;
39022;SDS011;25908;51.984;5.928;2022-08-02T15:19:31;2.30;;;0.80;;
39022;SDS011;25908;51.984;5.928;2022-08-02T15:21:57;3.15;;;1.00;;
39022;SDS011;25908;51.984;5.928;2022-08-02T15:24:23;3.58;;;0.98;;
39022;SDS011;25908;51.984;5.928;2022-08-02T15:26:49;3.45;;;1.00;;
39022;SDS011;25908;51.984;5.928;2022-08-02T15:29:15;4.00;;;0.90;;
39022;SDS011;25908;51.984;5.928;2022-08-02T15:31:44;1.83;;;0.82;;
39022;SDS011;25908;51.984;5.928;2022-08-02T15:34:11;3.08;;;1.02;;
39022;SDS011;25908;51.984;5.928;2022-08-02T15:36:37;1.73;;;0.80;;